createdAt,value
2023-04-08T00:00:53.665Z,9.91
2023-04-08T00:01:53.738Z,10.01
2023-04-08T00:02:53.778Z,9.94
2023-04-08T00:03:53.927Z,10.01
2023-04-08T00:04:53.771Z,9.94
2023-04-08T00:05:53.693Z,9.97
2023-04-08T00:06:53.642Z,9.91
2023-04-08T00:07:53.627Z,9.99
2023-04-08T00:08:53.584Z,9.89
2023-04-08T00:09:53.650Z,9.96
2023-04-08T00:10:53.576Z,9.89
2023-04-08T00:11:53.541Z,9.99
2023-04-08T00:12:53.544Z,9.89
2023-04-08T00:13:53.530Z,9.97
2023-04-08T00:14:53.517Z,9.94
2023-04-08T00:15:53.622Z,10.04
2023-04-08T00:16:53.523Z,9.85
2023-04-08T00:17:53.519Z,9.96
2023-04-08T00:18:53.476Z,9.93
2023-04-08T00:19:53.526Z,9.89
2023-04-08T00:20:53.428Z,9.93
2023-04-08T00:21:53.425Z,9.88
2023-04-08T00:22:53.440Z,9.86
2023-04-08T00:23:53.519Z,9.91
2023-04-08T00:24:53.421Z,9.97
2023-04-08T00:25:53.431Z,9.91
2023-04-08T00:26:53.363Z,9.85
2023-04-08T00:27:53.399Z,9.91
2023-04-08T00:28:53.429Z,9.91
2023-04-08T00:29:53.392Z,9.97
2023-04-08T00:30:53.529Z,9.97
2023-04-08T00:31:53.307Z,9.89
2023-04-08T00:32:53.361Z,9.83
2023-04-08T00:33:53.307Z,9.99
2023-04-08T00:34:53.281Z,9.89
2023-04-08T00:35:53.316Z,9.86
2023-04-08T00:36:53.279Z,9.89
2023-04-08T00:37:53.257Z,9.88
2023-04-08T00:38:53.240Z,9.94
2023-04-08T00:39:53.254Z,9.91
2023-04-08T00:40:53.227Z,9.91
2023-04-08T00:41:53.207Z,9.85
2023-04-08T00:42:53.180Z,9.91
2023-04-08T00:43:53.199Z,9.97
2023-04-08T00:44:53.200Z,9.91
2023-04-08T00:45:53.471Z,9.94
2023-04-08T00:46:53.143Z,9.86
2023-04-08T00:47:53.227Z,9.89
2023-04-08T00:48:53.116Z,9.89
2023-04-08T00:49:53.141Z,9.91
2023-04-08T00:50:53.129Z,9.99
2023-04-08T00:51:53.080Z,9.91
2023-04-08T00:52:53.086Z,9.97
2023-04-08T00:53:53.087Z,9.93
2023-04-08T00:54:53.045Z,9.85
2023-04-08T00:55:53.077Z,9.94
2023-04-08T00:56:53.041Z,9.93
2023-04-08T00:57:53.027Z,9.86
2023-04-08T00:58:53.014Z,9.93
2023-04-08T00:59:53.001Z,9.96
2023-04-08T01:00:53.023Z,9.99
2023-04-08T01:01:53.049Z,10.03
2023-04-08T01:02:53.102Z,9.99
2023-04-08T01:03:53.090Z,9.86
2023-04-08T01:04:52.934Z,10.01
2023-04-08T01:05:52.956Z,9.82
2023-04-08T01:06:52.925Z,9.88
2023-04-08T01:07:52.908Z,9.94
2023-04-08T01:08:52.887Z,10.00
2023-04-08T01:09:52.892Z,9.85
2023-04-08T01:10:52.886Z,9.93
2023-04-08T01:11:52.907Z,9.91
2023-04-08T01:12:52.861Z,10.00
2023-04-08T01:13:52.849Z,9.93
2023-04-08T01:14:52.848Z,9.91
2023-04-08T01:15:52.855Z,9.91
2023-04-08T01:16:52.825Z,9.86
2023-04-08T01:17:52.870Z,9.93
2023-04-08T01:18:52.776Z,9.99
2023-04-08T01:19:52.781Z,9.91
2023-04-08T01:20:52.778Z,9.91
2023-04-08T01:21:52.742Z,9.89
2023-04-08T01:22:52.731Z,9.88
2023-04-08T01:23:52.734Z,9.86
2023-04-08T01:24:52.719Z,9.86
2023-04-08T01:25:52.742Z,9.89
2023-04-08T01:26:52.683Z,9.83
2023-04-08T01:27:52.720Z,9.88
2023-04-08T01:28:52.675Z,9.91
2023-04-08T01:29:52.658Z,9.86
2023-04-08T01:30:52.770Z,9.96
2023-04-08T01:31:52.642Z,9.96
2023-04-08T01:32:52.682Z,9.89
2023-04-08T01:33:52.642Z,9.99
2023-04-08T01:34:52.598Z,9.91
2023-04-08T01:35:52.628Z,9.94
2023-04-08T01:36:52.589Z,9.96
2023-04-08T01:37:52.579Z,9.83
2023-04-08T01:38:52.613Z,9.88
2023-04-08T01:39:52.559Z,9.81
2023-04-08T01:40:52.546Z,9.78
2023-04-08T01:41:52.954Z,9.97
2023-04-08T01:42:52.530Z,9.85
2023-04-08T01:43:52.542Z,9.93
2023-04-08T01:44:52.483Z,9.91
2023-04-08T01:45:52.551Z,9.93
2023-04-08T01:46:52.521Z,9.89
2023-04-08T01:47:52.611Z,9.89
2023-04-08T01:48:52.705Z,9.88
2023-04-08T01:49:52.445Z,9.88
2023-04-08T01:50:52.439Z,9.91
2023-04-08T01:51:52.427Z,9.99
2023-04-08T01:52:52.411Z,9.82
2023-04-08T01:53:52.398Z,9.94
2023-04-08T01:54:52.385Z,9.86
2023-04-08T01:55:52.370Z,9.81
2023-04-08T01:56:52.504Z,9.79
2023-04-08T01:57:52.342Z,9.81
2023-04-08T01:58:52.457Z,9.82
2023-04-08T01:59:52.362Z,9.94
2023-04-08T02:00:52.304Z,9.88
2023-04-08T02:01:52.382Z,9.75
2023-04-08T02:02:52.506Z,9.71
2023-04-08T02:03:52.416Z,9.83
2023-04-08T02:04:52.277Z,9.82
2023-04-08T02:05:52.269Z,9.85
2023-04-08T02:06:52.268Z,9.81
2023-04-08T02:07:52.247Z,9.83
2023-04-08T02:08:52.543Z,9.85
2023-04-08T02:09:52.219Z,9.78
2023-04-08T02:10:52.209Z,9.78
2023-04-08T02:11:52.218Z,9.79
2023-04-08T02:12:52.188Z,9.79
2023-04-08T02:13:52.176Z,9.75
2023-04-08T02:14:52.160Z,9.83
2023-04-08T02:15:52.227Z,9.73
2023-04-08T02:16:52.139Z,9.71
2023-04-08T02:17:52.160Z,9.81
2023-04-08T02:18:52.265Z,9.83
2023-04-08T02:19:52.110Z,9.83
2023-04-08T02:20:52.095Z,9.78
2023-04-08T02:21:52.105Z,9.73
2023-04-08T02:22:52.056Z,9.79
2023-04-08T02:23:52.052Z,9.81
2023-04-08T02:24:52.038Z,9.81
2023-04-08T02:25:52.027Z,9.85
2023-04-08T02:26:52.056Z,9.76
2023-04-08T02:27:52.006Z,9.79
2023-04-08T02:28:52.188Z,9.78
2023-04-08T02:29:51.991Z,9.83
2023-04-08T02:30:51.966Z,9.76
2023-04-08T02:31:52.054Z,9.79
2023-04-08T02:32:51.995Z,9.81
2023-04-08T02:33:51.939Z,9.81
2023-04-08T02:34:51.924Z,9.76
2023-04-08T02:35:51.941Z,9.81
2023-04-08T02:36:51.924Z,9.85
2023-04-08T02:37:51.899Z,9.78
2023-04-08T02:38:52.143Z,9.75
2023-04-08T02:39:51.903Z,9.78
2023-04-08T02:40:51.880Z,9.79
2023-04-08T02:41:51.884Z,9.73
2023-04-08T02:42:51.849Z,9.71
2023-04-08T02:43:51.832Z,9.83
2023-04-08T02:44:51.809Z,9.86
2023-04-08T02:45:51.829Z,9.75
2023-04-08T02:46:51.823Z,9.82
2023-04-08T02:47:51.879Z,9.81
2023-04-08T02:48:51.841Z,9.71
2023-04-08T02:49:51.779Z,9.79
2023-04-08T02:50:51.753Z,9.78
2023-04-08T02:51:51.737Z,9.70
2023-04-08T02:52:51.740Z,9.76
2023-04-08T02:53:51.725Z,9.81
2023-04-08T02:54:51.719Z,9.67
2023-04-08T02:55:51.708Z,9.73
2023-04-08T02:56:51.679Z,9.71
2023-04-08T02:57:51.709Z,9.76
2023-04-08T02:58:51.820Z,9.73
2023-04-08T02:59:51.661Z,9.67
2023-04-08T03:00:51.659Z,9.78
2023-04-08T03:01:51.755Z,9.67
2023-04-08T03:02:51.892Z,9.71
2023-04-08T03:03:51.695Z,9.71
2023-04-08T03:04:51.589Z,9.73
2023-04-08T03:05:51.589Z,9.71
2023-04-08T03:06:51.564Z,9.73
2023-04-08T03:07:51.584Z,9.66
2023-04-08T03:08:51.903Z,9.75
2023-04-08T03:09:51.542Z,9.79
2023-04-08T03:10:51.534Z,9.76
2023-04-08T03:11:51.511Z,9.60
2023-04-08T03:12:51.520Z,9.68
2023-04-08T03:13:51.488Z,9.68
2023-04-08T03:14:51.482Z,9.76
2023-04-08T03:15:51.465Z,9.71
2023-04-08T03:16:51.496Z,9.73
2023-04-08T03:17:51.565Z,9.64
2023-04-08T03:18:51.562Z,9.68
2023-04-08T03:19:51.457Z,9.70
2023-04-08T03:20:51.420Z,9.70
2023-04-08T03:21:51.412Z,9.71
2023-04-08T03:22:51.392Z,9.73
2023-04-08T03:23:51.373Z,9.68
2023-04-08T03:24:51.391Z,9.75
2023-04-08T03:25:51.348Z,9.68
2023-04-08T03:26:51.335Z,9.68
2023-04-08T03:27:51.355Z,9.71
2023-04-08T03:28:51.535Z,9.68
2023-04-08T03:29:51.332Z,9.60
2023-04-08T03:30:51.322Z,9.61
2023-04-08T03:31:51.377Z,9.52
2023-04-08T03:32:51.344Z,9.66
2023-04-08T03:33:51.282Z,9.71
2023-04-08T03:34:51.413Z,9.66
2023-04-08T03:35:51.313Z,9.67
2023-04-08T03:36:51.224Z,9.68
2023-04-08T03:37:51.246Z,9.64
2023-04-08T03:38:51.423Z,9.60
2023-04-08T03:39:51.223Z,9.67
2023-04-08T03:40:51.233Z,9.68
2023-04-08T03:41:51.180Z,9.70
2023-04-08T03:42:51.211Z,9.68
2023-04-08T03:43:51.166Z,9.56
2023-04-08T03:44:51.962Z,9.63
2023-04-08T03:45:51.144Z,9.66
2023-04-08T03:46:51.112Z,9.67
2023-04-08T03:47:51.175Z,9.75
2023-04-08T03:48:51.187Z,9.60
2023-04-08T03:49:51.090Z,9.75
2023-04-08T03:50:51.080Z,9.60
2023-04-08T03:51:51.097Z,9.64
2023-04-08T03:52:51.083Z,9.64
2023-04-08T03:53:51.029Z,9.63
2023-04-08T03:54:51.047Z,9.56
2023-04-08T03:55:51.006Z,9.67
2023-04-08T03:56:51.009Z,9.61
2023-04-08T03:57:51.018Z,9.66
2023-04-08T03:58:51.131Z,9.64
2023-04-08T03:59:50.972Z,9.70
2023-04-08T04:00:50.952Z,9.52
2023-04-08T04:01:50.973Z,9.56
2023-04-08T04:02:51.004Z,9.75
2023-04-08T04:03:51.047Z,9.66
2023-04-08T04:04:50.984Z,9.66
2023-04-08T04:05:50.921Z,9.64
2023-04-08T04:06:50.905Z,9.58
2023-04-08T04:07:50.922Z,9.60
2023-04-08T04:08:51.131Z,9.49
2023-04-08T04:09:50.846Z,9.53
2023-04-08T04:10:50.836Z,9.58
2023-04-08T04:11:50.826Z,9.56
2023-04-08T04:12:50.823Z,9.53
2023-04-08T04:13:50.802Z,9.56
2023-04-08T04:14:50.843Z,9.66
2023-04-08T04:15:50.822Z,9.57
2023-04-08T04:16:50.768Z,9.52
2023-04-08T04:17:50.847Z,9.45
2023-04-08T04:18:51.033Z,9.56
2023-04-08T04:19:50.758Z,9.48
2023-04-08T04:20:50.734Z,9.60
2023-04-08T04:21:50.724Z,9.50
2023-04-08T04:22:50.731Z,9.53
2023-04-08T04:23:50.721Z,9.58
2023-04-08T04:24:50.679Z,9.42
2023-04-08T04:25:50.669Z,9.61
2023-04-08T04:26:50.671Z,9.52
2023-04-08T04:27:50.662Z,9.64
2023-04-08T04:28:50.831Z,9.52
2023-04-08T04:29:50.619Z,9.49
2023-04-08T04:30:50.627Z,9.53
2023-04-08T04:31:50.600Z,9.56
2023-04-08T04:32:50.658Z,9.56
2023-04-08T04:33:50.578Z,9.46
2023-04-08T04:34:50.568Z,9.57
2023-04-08T04:35:50.596Z,9.53
2023-04-08T04:36:50.563Z,9.52
2023-04-08T04:37:50.545Z,9.53
2023-04-08T04:38:50.853Z,9.53
2023-04-08T04:39:50.570Z,9.60
2023-04-08T04:40:50.537Z,9.53
2023-04-08T04:41:50.524Z,9.63
2023-04-08T04:42:50.505Z,9.57
2023-04-08T04:43:50.499Z,9.56
2023-04-08T04:44:50.469Z,9.52
2023-04-08T04:45:50.454Z,9.50
2023-04-08T04:46:50.550Z,9.58
2023-04-08T04:47:50.451Z,9.43
2023-04-08T04:48:50.726Z,9.56
2023-04-08T04:49:50.405Z,9.57
2023-04-08T04:50:50.398Z,9.53
2023-04-08T04:51:50.400Z,9.49
2023-04-08T04:52:50.388Z,9.60
2023-04-08T04:53:50.372Z,9.60
2023-04-08T04:54:50.342Z,9.56
2023-04-08T04:55:50.349Z,9.61
2023-04-08T04:56:50.330Z,9.52
2023-04-08T04:57:50.355Z,9.57
2023-04-08T04:58:50.467Z,9.50
2023-04-08T04:59:50.283Z,9.53
2023-04-08T05:00:50.277Z,9.60
2023-04-08T05:01:50.345Z,9.67
2023-04-08T05:02:50.415Z,9.57
2023-04-08T05:03:50.276Z,9.58
2023-04-08T05:04:50.262Z,9.64
2023-04-08T05:05:50.223Z,9.66
2023-04-08T05:06:50.209Z,9.64
2023-04-08T05:07:50.270Z,9.70
2023-04-08T05:08:50.321Z,9.58
2023-04-08T05:09:50.184Z,9.64
2023-04-08T05:10:50.230Z,9.60
2023-04-08T05:11:50.186Z,9.58
2023-04-08T05:12:50.173Z,9.61
2023-04-08T05:13:50.158Z,9.56
2023-04-08T05:14:50.124Z,9.58
2023-04-08T05:15:50.170Z,9.56
2023-04-08T05:16:50.112Z,9.49
2023-04-08T05:17:50.181Z,9.53
2023-04-08T05:18:50.450Z,9.46
2023-04-08T05:19:50.086Z,9.53
2023-04-08T05:20:50.066Z,9.56
2023-04-08T05:21:50.043Z,9.66
2023-04-08T05:22:50.054Z,9.57
2023-04-08T05:23:50.018Z,9.56
2023-04-08T05:24:50.030Z,9.56
2023-04-08T05:25:49.994Z,9.56
2023-04-08T05:26:50.014Z,9.53
2023-04-08T05:27:50.035Z,9.57
2023-04-08T05:28:50.247Z,9.57
2023-04-08T05:29:49.963Z,9.53
2023-04-08T05:30:49.947Z,9.60
2023-04-08T05:31:49.967Z,9.57
2023-04-08T05:32:49.994Z,9.58
2023-04-08T05:33:49.924Z,9.53
2023-04-08T05:34:49.904Z,9.49
2023-04-08T05:35:49.956Z,9.49
2023-04-08T05:36:49.887Z,9.52
2023-04-08T05:37:49.862Z,9.56
2023-04-08T05:38:50.158Z,9.53
2023-04-08T05:39:49.843Z,9.60
2023-04-08T05:40:49.856Z,9.48
2023-04-08T05:41:49.843Z,9.56
2023-04-08T05:42:49.825Z,9.61
2023-04-08T05:43:49.837Z,9.60
2023-04-08T05:44:49.844Z,9.56
2023-04-08T05:45:49.775Z,9.52
2023-04-08T05:46:49.792Z,9.50
2023-04-08T05:47:49.850Z,9.52
2023-04-08T05:48:49.988Z,9.63
2023-04-08T05:49:51.270Z,9.52
2023-04-08T05:50:49.728Z,9.63
2023-04-08T05:51:49.719Z,9.53
2023-04-08T05:52:49.726Z,9.56
2023-04-08T05:53:49.696Z,9.50
2023-04-08T05:54:49.686Z,9.57
2023-04-08T05:55:49.683Z,9.52
2023-04-08T05:56:49.647Z,9.67
2023-04-08T05:57:49.637Z,9.53
2023-04-08T05:58:49.867Z,9.68
2023-04-08T05:59:49.633Z,9.67
2023-04-08T06:00:49.642Z,9.64
2023-04-08T06:01:49.709Z,9.58
2023-04-08T06:02:49.795Z,9.66
2023-04-08T06:03:49.773Z,9.70
2023-04-08T06:04:49.591Z,9.67
2023-04-08T06:05:49.550Z,9.58
2023-04-08T06:06:49.529Z,9.53
2023-04-08T06:07:49.547Z,9.63
2023-04-08T06:08:49.788Z,9.53
2023-04-08T06:09:49.491Z,9.53
2023-04-08T06:10:49.503Z,9.60
2023-04-08T06:11:49.485Z,9.52
2023-04-08T06:12:49.474Z,9.63
2023-04-08T06:13:49.500Z,9.57
2023-04-08T06:14:49.453Z,9.58
2023-04-08T06:15:49.457Z,9.64
2023-04-08T06:16:49.439Z,9.70
2023-04-08T06:17:49.435Z,9.57
2023-04-08T06:18:49.773Z,9.64
2023-04-08T06:19:49.401Z,9.53
2023-04-08T06:20:49.386Z,9.48
2023-04-08T06:21:49.369Z,9.56
2023-04-08T06:22:49.359Z,9.60
2023-04-08T06:23:49.354Z,9.56
2023-04-08T06:24:49.323Z,9.57
2023-04-08T06:25:49.324Z,9.49
2023-04-08T06:26:49.329Z,9.58
2023-04-08T06:27:49.300Z,9.53
2023-04-08T06:28:49.587Z,9.58
2023-04-08T06:29:49.264Z,9.52
2023-04-08T06:30:49.259Z,9.45
2023-04-08T06:31:49.325Z,9.61
2023-04-08T06:32:49.448Z,9.46
2023-04-08T06:33:49.276Z,9.52
2023-04-08T06:34:49.226Z,9.58
2023-04-08T06:35:49.240Z,9.53
2023-04-08T06:36:49.202Z,9.53
2023-04-08T06:37:49.189Z,9.63
2023-04-08T06:38:49.411Z,9.58
2023-04-08T06:39:49.150Z,9.63
2023-04-08T06:40:49.162Z,9.68
2023-04-08T06:41:49.561Z,9.67
2023-04-08T06:42:49.140Z,9.66
2023-04-08T06:43:49.116Z,9.66
2023-04-08T06:44:49.105Z,9.76
2023-04-08T06:45:49.334Z,9.78
2023-04-08T06:46:49.092Z,9.71
2023-04-08T06:47:49.131Z,9.73
2023-04-08T06:48:49.361Z,9.64
2023-04-08T06:49:49.075Z,9.79
2023-04-08T06:50:49.045Z,9.79
2023-04-08T06:51:49.027Z,9.85
2023-04-08T06:52:49.018Z,9.83
2023-04-08T06:53:49.077Z,9.81
2023-04-08T06:54:48.987Z,9.79
2023-04-08T06:55:48.983Z,9.89
2023-04-08T06:56:48.978Z,9.83
2023-04-08T06:57:48.976Z,9.81
2023-04-08T06:58:49.205Z,9.78
2023-04-08T06:59:48.949Z,9.89
2023-04-08T07:00:48.936Z,9.99
2023-04-08T07:01:48.954Z,9.96
2023-04-08T07:02:48.950Z,9.94
2023-04-08T07:03:49.102Z,9.89
2023-04-08T07:04:48.917Z,9.96
2023-04-08T07:05:48.863Z,10.00
2023-04-08T07:06:48.864Z,9.94
2023-04-08T07:07:48.838Z,10.01
2023-04-08T07:08:49.128Z,10.07
2023-04-08T07:09:48.816Z,10.14
2023-04-08T07:10:48.808Z,10.06
2023-04-08T07:11:48.815Z,10.04
2023-04-08T07:12:48.793Z,10.17
2023-04-08T07:13:48.792Z,10.06
2023-04-08T07:14:48.773Z,10.07
2023-04-08T07:15:48.754Z,10.18
2023-04-08T07:16:48.817Z,10.18
2023-04-08T07:17:48.752Z,10.10
2023-04-08T07:18:48.947Z,10.19
2023-04-08T07:19:48.727Z,10.25
2023-04-08T07:20:48.699Z,10.24
2023-04-08T07:21:48.687Z,10.28
2023-04-08T07:22:48.679Z,10.24
2023-04-08T07:23:48.691Z,10.37
2023-04-08T07:24:48.650Z,10.36
2023-04-08T07:25:48.657Z,10.36
2023-04-08T07:26:48.650Z,10.24
2023-04-08T07:27:48.623Z,10.33
2023-04-08T07:28:48.887Z,10.37
2023-04-08T07:29:48.589Z,10.44
2023-04-08T07:30:48.618Z,10.37
2023-04-08T07:31:48.570Z,10.46
2023-04-08T07:32:48.584Z,10.60
2023-04-08T07:33:48.575Z,10.55
2023-04-08T07:34:48.563Z,10.44
2023-04-08T07:35:48.561Z,10.59
2023-04-08T07:36:48.533Z,10.65
2023-04-08T07:37:48.528Z,10.62
2023-04-08T07:38:48.773Z,10.66
2023-04-08T07:39:48.503Z,10.74
2023-04-08T07:40:48.486Z,10.74
2023-04-08T07:41:48.467Z,10.86
2023-04-08T07:42:48.462Z,10.80
2023-04-08T07:43:48.455Z,10.91
2023-04-08T07:44:48.469Z,10.94
2023-04-08T07:45:48.451Z,11.01
2023-04-08T07:46:48.402Z,10.92
2023-04-08T07:47:48.442Z,10.92
2023-04-08T07:48:48.580Z,10.92
2023-04-08T07:49:48.393Z,11.03
2023-04-08T07:51:08.142Z,11.02
2023-04-08T07:51:49.377Z,11.07
2023-04-08T07:52:48.345Z,11.02
2023-04-08T07:53:48.350Z,11.06
2023-04-08T07:54:48.323Z,11.06
2023-04-08T07:55:48.329Z,11.02
2023-04-08T07:56:48.308Z,11.11
2023-04-08T07:57:48.287Z,11.11
2023-04-08T07:58:49.016Z,11.06
2023-04-08T07:59:48.262Z,11.19
2023-04-08T08:00:48.241Z,11.31
2023-04-08T08:01:48.264Z,11.29
2023-04-08T08:02:48.356Z,11.32
2023-04-08T08:03:48.628Z,11.28
2023-04-08T08:04:48.212Z,11.25
2023-04-08T08:05:48.198Z,11.35
2023-04-08T08:06:48.169Z,11.39
2023-04-08T08:07:48.202Z,11.41
2023-04-08T08:08:48.184Z,11.46
2023-04-08T08:09:48.159Z,11.38
2023-04-08T08:10:48.144Z,11.41
2023-04-08T08:11:48.131Z,11.54
2023-04-08T08:12:48.104Z,11.56
2023-04-08T08:13:48.145Z,11.57
2023-04-08T08:14:48.087Z,11.65
2023-04-08T08:15:48.093Z,11.68
2023-04-08T08:16:48.071Z,11.72
2023-04-08T08:17:48.099Z,11.70
2023-04-08T08:18:48.056Z,11.68
2023-04-08T08:19:48.028Z,11.80
2023-04-08T08:20:48.035Z,11.82
2023-04-08T08:21:48.020Z,11.86
2023-04-08T08:22:57.406Z,11.78
2023-04-08T08:23:49.180Z,11.83
2023-04-08T08:24:47.981Z,11.85
2023-04-08T08:25:47.965Z,11.85
2023-04-08T08:26:47.967Z,11.75
2023-04-08T08:27:47.940Z,11.85
2023-04-08T08:28:47.937Z,11.86
2023-04-08T08:29:47.933Z,11.75
2023-04-08T08:30:47.916Z,11.74
2023-04-08T08:31:47.982Z,11.71
2023-04-08T08:32:47.892Z,11.65
2023-04-08T08:33:48.150Z,11.82
2023-04-08T08:34:47.858Z,11.74
2023-04-08T08:35:47.916Z,11.71
2023-04-08T08:36:47.847Z,11.80
2023-04-08T08:37:47.859Z,11.77
2023-04-08T08:38:47.833Z,11.83
2023-04-08T08:39:47.844Z,11.68
2023-04-08T08:40:47.817Z,11.87
2023-04-08T08:41:47.797Z,11.74
2023-04-08T08:42:47.770Z,11.67
2023-04-08T08:43:47.803Z,11.75
2023-04-08T08:44:47.790Z,11.83
2023-04-08T08:45:47.744Z,11.75
2023-04-08T08:46:47.786Z,11.78
2023-04-08T08:47:49.666Z,11.85
2023-04-08T08:48:47.723Z,11.71
2023-04-08T08:49:47.718Z,11.71
2023-04-08T08:50:47.692Z,11.71
2023-04-08T08:51:47.683Z,11.78
2023-04-08T08:52:47.655Z,11.80
2023-04-08T08:53:47.650Z,11.83
2023-04-08T08:54:47.722Z,11.87
2023-04-08T08:56:47.641Z,11.85
2023-04-08T08:57:47.602Z,11.86
2023-04-08T08:58:47.969Z,11.78
2023-04-08T08:59:47.615Z,11.85
2023-04-08T09:00:47.579Z,11.87
2023-04-08T09:01:47.660Z,11.89
2023-04-08T09:02:47.709Z,11.89
2023-04-08T09:03:47.671Z,11.96
2023-04-08T09:04:47.852Z,11.90
2023-04-08T09:05:47.582Z,12.01
2023-04-08T09:06:47.504Z,12.05
2023-04-08T09:07:47.493Z,12.01
2023-04-08T09:08:47.490Z,12.05
2023-04-08T09:09:47.514Z,12.13
2023-04-08T09:10:47.474Z,12.15
2023-04-08T09:11:47.674Z,12.23
2023-04-08T09:12:47.468Z,12.19
2023-04-08T09:13:47.522Z,12.12
2023-04-08T09:14:47.427Z,12.20
2023-04-08T09:15:47.400Z,12.19
2023-04-08T09:16:47.481Z,12.13
2023-04-08T09:17:47.439Z,12.16
2023-04-08T09:18:47.492Z,12.13
2023-04-08T09:19:47.393Z,12.12
2023-04-08T09:20:47.364Z,12.09
2023-04-08T09:21:47.359Z,12.09
2023-04-08T09:22:47.320Z,12.04
2023-04-08T09:23:47.363Z,12.11
2023-04-08T09:24:47.311Z,12.19
2023-04-08T09:25:47.298Z,12.12
2023-04-08T09:26:47.276Z,12.24
2023-04-08T09:27:47.302Z,12.21
2023-04-08T09:28:47.267Z,12.11
2023-04-08T09:29:47.262Z,12.15
2023-04-08T09:30:47.250Z,12.26
2023-04-08T09:31:47.383Z,12.23
2023-04-08T09:32:47.251Z,12.31
2023-04-08T09:33:47.242Z,12.26
2023-04-08T09:34:47.254Z,12.27
2023-04-08T09:35:47.214Z,12.21
2023-04-08T09:36:47.177Z,12.23
2023-04-08T09:37:47.199Z,12.23
2023-04-08T09:38:47.160Z,12.29
2023-04-08T09:39:47.156Z,12.34
2023-04-08T09:40:47.133Z,12.39
2023-04-08T09:41:47.113Z,12.44
2023-04-08T09:42:47.110Z,12.46
2023-04-08T09:43:47.125Z,12.49
2023-04-08T09:44:47.138Z,12.64
2023-04-08T09:45:47.082Z,12.59
2023-04-08T09:46:47.071Z,12.64
2023-04-08T09:47:47.101Z,12.69
2023-04-08T09:48:47.032Z,12.70
2023-04-08T09:49:47.053Z,12.84
2023-04-08T09:50:47.017Z,12.96
2023-04-08T09:51:47.000Z,12.89
2023-04-08T09:52:47.015Z,12.99
2023-04-08T09:53:47.011Z,13.12
2023-04-08T09:54:47.178Z,13.04
2023-04-08T09:55:46.954Z,13.14
2023-04-08T09:56:46.953Z,13.18
2023-04-08T09:57:46.937Z,13.33
2023-04-08T09:58:46.931Z,13.51
2023-04-08T09:59:46.992Z,13.46
2023-04-08T10:00:46.959Z,13.63
2023-04-08T10:01:46.902Z,13.56
2023-04-08T10:02:47.151Z,13.67
2023-04-08T10:03:46.946Z,13.63
2023-04-08T10:04:46.960Z,13.73
2023-04-08T10:05:46.842Z,13.70
2023-04-08T10:06:46.846Z,13.69
2023-04-08T10:07:46.832Z,13.67
2023-04-08T10:08:46.805Z,13.65
2023-04-08T10:09:46.843Z,13.67
2023-04-08T10:10:47.933Z,13.59
2023-04-08T10:11:46.790Z,13.63
2023-04-08T10:12:46.780Z,13.71
2023-04-08T10:13:46.764Z,13.70
2023-04-08T10:14:46.771Z,13.83
2023-04-08T10:15:46.754Z,13.76
2023-04-08T10:16:46.909Z,13.79
2023-04-08T10:17:46.730Z,13.83
2023-04-08T10:18:46.698Z,13.89
2023-04-08T10:19:46.711Z,13.94
2023-04-08T10:20:46.708Z,13.92
2023-04-08T10:21:46.678Z,13.96
2023-04-08T10:22:46.659Z,13.94
2023-04-08T10:23:46.654Z,14.07
2023-04-08T10:24:46.644Z,14.04
2023-04-08T10:25:46.622Z,14.07
2023-04-08T10:26:46.617Z,14.16
2023-04-08T10:27:46.606Z,14.10
2023-04-08T10:28:46.639Z,14.14
2023-04-08T10:29:46.610Z,14.20
2023-04-08T10:30:46.586Z,14.12
2023-04-08T10:31:46.572Z,14.10
2023-04-08T10:32:46.569Z,14.16
2023-04-08T10:33:46.525Z,14.17
2023-04-08T10:34:46.545Z,14.21
2023-04-08T10:35:46.686Z,14.25
2023-04-08T10:36:46.502Z,14.17
2023-04-08T10:37:46.477Z,14.12
2023-04-08T10:38:46.478Z,14.19
2023-04-08T10:39:46.498Z,14.19
2023-04-08T10:40:46.439Z,14.16
2023-04-08T10:41:46.431Z,14.07
2023-04-08T10:42:46.436Z,14.07
2023-04-08T10:43:46.426Z,14.02
2023-04-08T10:44:46.471Z,14.07
2023-04-08T10:45:48.097Z,14.04
2023-04-08T10:46:46.372Z,14.10
2023-04-08T10:47:46.432Z,14.10
2023-04-08T10:48:46.362Z,14.06
2023-04-08T10:49:46.365Z,14.10
2023-04-08T10:50:46.344Z,14.17
2023-04-08T10:51:46.328Z,14.16
2023-04-08T10:52:46.315Z,14.27
2023-04-08T10:53:46.296Z,14.31
2023-04-08T10:54:46.290Z,14.20
2023-04-08T10:55:46.324Z,14.25
2023-04-08T10:56:46.275Z,14.32
2023-04-08T10:57:46.251Z,14.28
2023-04-08T10:58:46.254Z,14.29
2023-04-08T10:59:46.302Z,14.43
2023-04-08T11:00:46.252Z,14.35
2023-04-08T11:01:46.299Z,14.34
2023-04-08T11:02:46.411Z,14.49
2023-04-08T11:03:46.302Z,14.60
2023-04-08T11:04:46.192Z,14.62
2023-04-08T11:05:46.163Z,14.81
2023-04-08T11:06:46.148Z,14.86
2023-04-08T11:07:46.155Z,14.91
2023-04-08T11:08:46.149Z,14.94
2023-04-08T11:09:46.184Z,15.08
2023-04-08T11:10:46.121Z,15.11
2023-04-08T11:11:46.115Z,15.09
2023-04-08T11:12:46.085Z,15.20
2023-04-08T11:13:53.314Z,15.12
2023-04-08T11:14:48.514Z,15.15
2023-04-08T11:15:46.108Z,15.15
2023-04-08T11:16:46.056Z,15.19
2023-04-08T11:17:46.096Z,15.24
2023-04-08T11:18:46.226Z,15.19
2023-04-08T11:19:46.050Z,15.21
2023-04-08T11:20:46.012Z,15.24
2023-04-08T11:21:46.001Z,15.26
2023-04-08T11:22:45.971Z,15.35
2023-04-08T11:23:45.996Z,15.26
2023-04-08T11:24:45.962Z,15.19
2023-04-08T11:25:45.954Z,15.12
2023-04-08T11:26:45.929Z,15.28
2023-04-08T11:27:45.938Z,15.19
2023-04-08T11:28:45.904Z,15.15
2023-04-08T11:29:45.923Z,15.17
2023-04-08T11:30:45.941Z,15.08
2023-04-08T11:31:45.882Z,15.15
2023-04-08T11:32:45.922Z,15.05
2023-04-08T11:33:45.871Z,15.11
2023-04-08T11:34:45.853Z,15.13
2023-04-08T11:35:45.923Z,14.99
2023-04-08T11:36:45.829Z,14.94
2023-04-08T11:37:45.810Z,15.08
2023-04-08T11:38:45.796Z,14.94
2023-04-08T11:39:45.802Z,14.95
2023-04-08T11:40:45.788Z,14.74
2023-04-08T11:41:45.772Z,14.72
2023-04-08T11:42:47.019Z,14.64
2023-04-08T11:43:45.755Z,14.62
2023-04-08T11:44:45.742Z,14.65
2023-04-08T11:45:45.747Z,14.57
2023-04-08T11:46:45.758Z,14.54
2023-04-08T11:47:45.792Z,14.52
2023-04-08T11:48:45.698Z,14.39
2023-04-08T11:49:45.690Z,14.53
2023-04-08T11:50:45.672Z,14.39
2023-04-08T11:51:45.698Z,14.43
2023-04-08T11:52:45.658Z,14.35
2023-04-08T11:53:45.630Z,14.42
2023-04-08T11:54:45.630Z,14.28
2023-04-08T11:55:45.613Z,14.43
2023-04-08T11:56:45.611Z,14.39
2023-04-08T11:57:45.612Z,14.28
2023-04-08T11:58:45.568Z,14.31
2023-04-08T11:59:45.584Z,14.27
2023-04-08T12:00:45.562Z,14.29
2023-04-08T12:01:45.579Z,14.19
2023-04-08T12:02:45.616Z,14.13
2023-04-08T12:03:45.682Z,14.07
2023-04-08T12:04:45.548Z,14.01
2023-04-08T12:05:45.494Z,14.04
2023-04-08T12:06:45.494Z,14.06
2023-04-08T12:07:45.545Z,14.10
2023-04-08T12:08:45.475Z,14.04
2023-04-08T12:09:45.487Z,14.02
2023-04-08T12:10:45.453Z,13.98
2023-04-08T12:11:45.446Z,13.98
2023-04-08T12:12:45.411Z,14.01
2023-04-08T12:13:45.427Z,13.94
2023-04-08T12:14:45.426Z,13.95
2023-04-08T12:15:45.424Z,13.91
2023-04-08T12:16:45.391Z,13.87
2023-04-08T12:17:45.418Z,13.83
2023-04-08T12:18:45.358Z,13.81
2023-04-08T12:19:45.347Z,13.92
2023-04-08T12:20:45.354Z,13.92
2023-04-08T12:21:45.319Z,13.95
2023-04-08T12:22:45.328Z,13.98
2023-04-08T12:23:45.340Z,14.06
2023-04-08T12:24:45.301Z,13.98
2023-04-08T12:25:45.295Z,14.01
2023-04-08T12:26:45.273Z,13.99
2023-04-08T12:27:45.253Z,13.98
2023-04-08T12:28:45.248Z,13.99
2023-04-08T12:29:45.234Z,13.98
2023-04-08T12:30:45.233Z,14.02
2023-04-08T12:31:45.271Z,14.07
2023-04-08T12:32:45.252Z,14.04
2023-04-08T12:33:45.197Z,14.02
2023-04-08T12:34:45.170Z,14.04
2023-04-08T12:35:45.266Z,14.02
2023-04-08T12:36:45.159Z,14.06
2023-04-08T12:37:45.139Z,14.04
2023-04-08T12:38:45.146Z,14.04
2023-04-08T12:39:45.145Z,14.02
2023-04-08T12:40:45.155Z,14.09
2023-04-08T12:41:45.102Z,14.01
2023-04-08T12:42:45.096Z,14.06
2023-04-08T12:43:45.074Z,14.06
2023-04-08T12:44:45.060Z,14.14
2023-04-08T12:45:45.075Z,14.10
2023-04-08T12:46:45.083Z,14.20
2023-04-08T12:47:45.043Z,14.20
2023-04-08T12:48:45.044Z,14.16
2023-04-08T12:49:49.452Z,14.21
2023-04-08T12:50:45.026Z,14.12
2023-04-08T12:51:44.997Z,14.06
2023-04-08T12:52:44.971Z,14.02
2023-04-08T12:53:44.961Z,14.12
2023-04-08T12:54:44.960Z,14.04
2023-04-08T12:55:45.110Z,13.95
2023-04-08T12:56:44.944Z,14.06
2023-04-08T12:57:44.922Z,14.10
2023-04-08T12:58:44.902Z,14.16
2023-04-08T12:59:44.887Z,14.28
2023-04-08T13:00:44.985Z,14.31
2023-04-08T13:01:45.695Z,14.28
2023-04-08T13:02:44.930Z,14.29
2023-04-08T13:03:46.955Z,14.42
2023-04-08T13:04:44.844Z,14.31
2023-04-08T13:05:44.856Z,14.43
2023-04-08T13:06:44.829Z,14.50
2023-04-08T13:07:44.800Z,14.53